createdAt,value
2023-04-20T00:00:04.184Z, 36.54
2023-04-20T00:01:04.199Z, 36.49
2023-04-20T00:02:04.357Z, 36.50
2023-04-20T00:03:04.376Z, 36.46
2023-04-20T00:04:04.248Z, 36.43
2023-04-20T00:05:04.336Z, 36.43
2023-04-20T00:06:04.283Z, 36.39
2023-04-20T00:07:04.285Z, 36.36
2023-04-20T00:08:04.291Z, 36.35
2023-04-20T00:09:04.362Z, 36.39
2023-04-20T00:10:04.344Z, 36.43
2023-04-20T00:11:04.332Z, 36.37
2023-04-20T00:12:04.336Z, 36.39
2023-04-20T00:13:04.339Z, 36.35
2023-04-20T00:14:04.338Z, 36.33
2023-04-20T00:15:04.373Z, 36.33
2023-04-20T00:16:04.421Z, 36.31
2023-04-20T00:17:04.505Z, 36.31
2023-04-20T00:18:04.503Z, 36.33
2023-04-20T00:19:04.410Z, 36.30
2023-04-20T00:20:04.484Z, 36.26
2023-04-20T00:21:04.454Z, 36.22
2023-04-20T00:22:04.468Z, 36.19
2023-04-20T00:23:04.469Z, 36.16
2023-04-20T00:24:04.455Z, 36.16
2023-04-20T00:25:04.477Z, 36.17
2023-04-20T00:26:04.493Z, 36.14
2023-04-20T00:27:04.496Z, 36.06
2023-04-20T00:28:04.514Z, 36.05
2023-04-20T00:29:04.609Z, 36.10
2023-04-20T00:30:04.565Z, 36.10
2023-04-20T00:31:04.683Z, 36.08
2023-04-20T00:32:04.618Z, 36.02
2023-04-20T00:33:04.642Z, 36.06
2023-04-20T00:34:04.601Z, 35.99
2023-04-20T00:35:04.638Z, 36.00
2023-04-20T00:36:04.604Z, 36.00
2023-04-20T00:37:04.620Z, 35.95
2023-04-20T00:38:04.721Z, 35.94
2023-04-20T00:39:04.695Z, 35.95
2023-04-20T00:40:04.742Z, 35.94
2023-04-20T00:41:04.735Z, 35.93
2023-04-20T00:42:04.741Z, 35.96
2023-04-20T00:43:04.727Z, 35.96
2023-04-20T00:44:04.769Z, 35.90
2023-04-20T00:45:04.767Z, 35.88
2023-04-20T00:46:04.812Z, 35.91
2023-04-20T00:47:04.767Z, 35.85
2023-04-20T00:48:04.850Z, 35.83
2023-04-20T00:49:04.772Z, 35.82
2023-04-20T00:50:04.804Z, 35.81
2023-04-20T00:51:04.880Z, 35.77
2023-04-20T00:52:04.851Z, 35.74
2023-04-20T00:53:04.860Z, 35.74
2023-04-20T00:54:04.849Z, 35.70
2023-04-20T00:55:04.883Z, 35.67
2023-04-20T00:56:04.939Z, 35.67
2023-04-20T00:57:04.893Z, 35.71
2023-04-20T00:58:04.976Z, 35.72
2023-04-20T00:59:04.961Z, 35.66
2023-04-20T01:00:04.966Z, 35.68
2023-04-20T01:01:04.963Z, 35.68
2023-04-20T01:02:05.159Z, 35.64
2023-04-20T01:03:05.188Z, 35.64
2023-04-20T01:04:05.059Z, 35.62
2023-04-20T01:05:05.061Z, 35.61
2023-04-20T01:06:05.037Z, 35.58
2023-04-20T01:07:05.092Z, 35.55
2023-04-20T01:08:05.067Z, 35.53
2023-04-20T01:09:05.065Z, 35.53
2023-04-20T01:10:05.070Z, 35.51
2023-04-20T01:11:05.075Z, 35.48
2023-04-20T01:12:05.076Z, 35.47
2023-04-20T01:13:05.112Z, 35.46
2023-04-20T01:14:05.117Z, 35.46
2023-04-20T01:15:05.141Z, 35.44
2023-04-20T01:16:05.263Z, 35.43
2023-04-20T01:17:05.180Z, 35.44
2023-04-20T01:18:05.326Z, 35.43
2023-04-20T01:19:05.175Z, 35.44
2023-04-20T01:20:05.195Z, 35.39
2023-04-20T01:21:05.180Z, 35.40
2023-04-20T01:22:05.221Z, 35.41
2023-04-20T01:23:05.205Z, 35.41
2023-04-20T01:24:05.244Z, 35.38
2023-04-20T01:25:05.312Z, 35.38
2023-04-20T01:26:05.280Z, 35.29
2023-04-20T01:27:05.364Z, 35.30
2023-04-20T01:28:05.334Z, 35.29
2023-04-20T01:29:05.381Z, 35.28
2023-04-20T01:30:05.363Z, 35.24
2023-04-20T01:31:05.425Z, 35.24
2023-04-20T01:32:05.368Z, 35.22
2023-04-20T01:33:05.443Z, 35.26
2023-04-20T01:34:05.401Z, 35.27
2023-04-20T01:35:05.460Z, 35.25
2023-04-20T01:36:05.429Z, 35.22
2023-04-20T01:37:05.475Z, 35.20
2023-04-20T01:38:05.452Z, 35.22
2023-04-20T01:39:05.506Z, 35.21
2023-04-20T01:40:05.480Z, 35.16
2023-04-20T01:41:05.543Z, 35.22
2023-04-20T01:42:05.539Z, 35.20
2023-04-20T01:43:05.535Z, 35.18
2023-04-20T01:44:05.501Z, 35.16
2023-04-20T01:45:05.501Z, 35.14
2023-04-20T01:46:05.527Z, 35.13
2023-04-20T01:47:05.557Z, 35.12
2023-04-20T01:48:05.651Z, 35.08
2023-04-20T01:49:05.571Z, 35.03
2023-04-20T01:50:05.644Z, 35.00
2023-04-20T01:51:05.621Z, 34.99
2023-04-20T01:52:05.627Z, 34.96
2023-04-20T01:53:05.625Z, 34.96
2023-04-20T01:54:05.629Z, 34.95
2023-04-20T01:55:05.697Z, 34.92
2023-04-20T01:56:05.653Z, 34.92
2023-04-20T01:57:05.742Z, 34.92
2023-04-20T01:58:05.707Z, 34.91
2023-04-20T01:59:05.765Z, 34.89
2023-04-20T02:00:05.741Z, 34.91
2023-04-20T02:01:05.912Z, 34.91
2023-04-20T02:02:05.865Z, 34.91
2023-04-20T02:03:05.887Z, 34.91
2023-04-20T02:04:05.828Z, 34.87
2023-04-20T02:05:05.794Z, 34.87
2023-04-20T02:06:05.843Z, 34.86
2023-04-20T02:07:05.829Z, 34.81
2023-04-20T02:08:05.872Z, 34.80
2023-04-20T02:09:05.823Z, 34.76
2023-04-20T02:10:05.829Z, 34.77
2023-04-20T02:11:05.901Z, 34.74
2023-04-20T02:12:05.865Z, 34.74
2023-04-20T02:13:05.910Z, 34.72
2023-04-20T02:14:05.893Z, 34.71
2023-04-20T02:15:05.947Z, 34.75
2023-04-20T02:16:05.939Z, 34.71
2023-04-20T02:17:06.030Z, 34.70
2023-04-20T02:18:05.936Z, 34.69
2023-04-20T02:19:05.927Z, 34.68
2023-04-20T02:20:05.985Z, 34.66
2023-04-20T02:21:05.986Z, 34.67
2023-04-20T02:22:05.964Z, 34.63
2023-04-20T02:23:05.962Z, 34.59
2023-04-20T02:24:06.002Z, 34.60
2023-04-20T02:25:06.015Z, 34.61
2023-04-20T02:26:05.989Z, 34.59
2023-04-20T02:27:05.998Z, 34.62
2023-04-20T02:28:06.008Z, 34.59
2023-04-20T02:29:06.017Z, 34.57
2023-04-20T02:30:06.034Z, 34.57
2023-04-20T02:31:06.067Z, 34.58
2023-04-20T02:32:06.048Z, 34.53
2023-04-20T02:33:06.138Z, 34.51
2023-04-20T02:34:06.171Z, 34.52
2023-04-20T02:35:06.124Z, 34.50
2023-04-20T02:36:06.108Z, 34.51
2023-04-20T02:37:06.111Z, 34.51
2023-04-20T02:38:06.115Z, 34.49
2023-04-20T02:39:06.107Z, 34.52
2023-04-20T02:40:06.161Z, 34.56
2023-04-20T02:41:06.126Z, 34.52
2023-04-20T02:42:06.233Z, 34.49
2023-04-20T02:43:06.217Z, 34.44
2023-04-20T02:44:06.253Z, 34.42
2023-04-20T02:45:06.220Z, 34.40
2023-04-20T02:46:06.351Z, 34.40
2023-04-20T02:47:06.236Z, 34.38
2023-04-20T02:48:06.271Z, 34.37
2023-04-20T02:49:06.251Z, 34.36
2023-04-20T02:50:06.266Z, 34.35
2023-04-20T02:51:06.266Z, 34.34
2023-04-20T02:52:06.247Z, 34.31
2023-04-20T02:53:06.324Z, 34.26
2023-04-20T02:54:06.274Z, 34.25
2023-04-20T02:55:06.301Z, 34.24
2023-04-20T02:56:06.290Z, 34.26
2023-04-20T02:57:06.301Z, 34.27
2023-04-20T02:58:06.360Z, 34.23
2023-04-20T02:59:06.340Z, 34.20
2023-04-20T03:00:06.377Z, 34.21
2023-04-20T03:01:06.367Z, 34.21
2023-04-20T03:02:06.456Z, 34.21
2023-04-20T03:03:06.484Z, 34.23
2023-04-20T03:04:06.517Z, 34.21
2023-04-20T03:05:06.429Z, 34.17
2023-04-20T03:06:06.411Z, 34.16
2023-04-20T03:07:06.451Z, 34.14
2023-04-20T03:08:06.441Z, 34.14
2023-04-20T03:09:06.455Z, 34.12
2023-04-20T03:10:06.455Z, 34.09
2023-04-20T03:11:06.465Z, 34.07
2023-04-20T03:12:06.465Z, 34.08
2023-04-20T03:13:06.452Z, 34.05
2023-04-20T03:14:06.460Z, 34.02
2023-04-20T03:15:06.463Z, 34.00
2023-04-20T03:16:06.542Z, 33.95
2023-04-20T03:17:06.480Z, 33.93
2023-04-20T03:18:06.566Z, 33.93
2023-04-20T03:19:06.544Z, 33.98
2023-04-20T03:20:06.561Z, 33.99
2023-04-20T03:21:06.592Z, 33.95
2023-04-20T03:22:06.555Z, 33.93
2023-04-20T03:23:06.568Z, 33.94
2023-04-20T03:24:06.563Z, 33.96
2023-04-20T03:25:06.672Z, 33.93
2023-04-20T03:26:06.595Z, 33.92
2023-04-20T03:27:06.600Z, 33.92
2023-04-20T03:28:06.613Z, 33.93
2023-04-20T03:29:06.684Z, 33.90
2023-04-20T03:30:06.674Z, 33.87
2023-04-20T03:31:06.692Z, 34.09
2023-04-20T03:32:06.794Z, 35.23
2023-04-20T03:33:06.691Z, 36.83
2023-04-20T03:34:06.728Z, 37.75
2023-04-20T03:35:06.735Z, 38.38
2023-04-20T03:36:06.822Z, 38.95
2023-04-20T03:37:06.773Z, 39.43
2023-04-20T03:38:06.846Z, 39.83
2023-04-20T03:39:06.790Z, 40.15
2023-04-20T03:40:06.802Z, 40.43
2023-04-20T03:41:06.800Z, 40.65
2023-04-20T03:42:06.870Z, 40.83
2023-04-20T03:43:06.869Z, 41.06
2023-04-20T03:44:06.851Z, 41.27
2023-04-20T03:45:06.899Z, 41.47
2023-04-20T03:46:06.898Z, 41.60
2023-04-20T03:47:06.876Z, 41.71
2023-04-20T03:48:06.877Z, 41.84
2023-04-20T03:49:06.913Z, 41.96
2023-04-20T03:50:06.886Z, 42.06
2023-04-20T03:51:06.959Z, 42.11
2023-04-20T03:52:06.932Z, 42.20
2023-04-20T03:53:07.027Z, 42.24
2023-04-20T03:54:06.973Z, 42.29
2023-04-20T03:55:06.978Z, 42.36
2023-04-20T03:56:06.974Z, 42.43
2023-04-20T03:57:06.995Z, 42.44
2023-04-20T03:58:07.039Z, 42.48
2023-04-20T03:59:07.008Z, 42.52
2023-04-20T04:00:07.095Z, 42.55
2023-04-20T04:01:07.128Z, 42.45
2023-04-20T04:02:07.201Z, 42.23
2023-04-20T04:03:07.373Z, 43.96
2023-04-20T04:04:07.534Z, 46.27
2023-04-20T04:05:07.142Z, 49.69
2023-04-20T04:06:07.130Z, 53.75
2023-04-20T04:07:07.121Z, 58.02
2023-04-20T04:08:07.121Z, 66.89
2023-04-20T04:09:07.177Z, 62.63
2023-04-20T04:10:07.172Z, 53.91
2023-04-20T04:11:07.158Z, 54.00
2023-04-20T04:12:07.185Z, 55.44
2023-04-20T04:13:07.162Z, 57.45
2023-04-20T04:14:07.193Z, 61.29
2023-04-20T04:15:07.187Z, 67.66
2023-04-20T04:16:07.255Z, 57.39
2023-04-20T04:17:07.307Z, 54.15
2023-04-20T04:18:07.292Z, 55.02
2023-04-20T04:19:07.256Z, 56.87
2023-04-20T04:20:07.273Z, 58.88
2023-04-20T04:21:07.331Z, 60.31
2023-04-20T04:22:07.311Z, 61.26
2023-04-20T04:23:07.335Z, 65.02
2023-04-20T04:24:07.309Z, 65.81
2023-04-20T04:25:07.383Z, 65.47
2023-04-20T04:26:07.366Z, 65.00
2023-04-20T04:27:07.386Z, 64.57
2023-04-20T04:28:07.396Z, 64.29
2023-04-20T04:29:07.385Z, 63.76
2023-04-20T04:30:07.391Z, 63.00
2023-04-20T04:31:07.433Z, 62.39
2023-04-20T04:32:07.390Z, 62.07
2023-04-20T04:33:07.474Z, 61.64
2023-04-20T04:34:07.440Z, 61.11
2023-04-20T04:35:07.491Z, 60.55
2023-04-20T04:36:07.463Z, 60.07
2023-04-20T04:37:07.463Z, 59.66
2023-04-20T04:38:07.527Z, 59.36
2023-04-20T04:39:07.506Z, 59.00
2023-04-20T04:40:07.565Z, 58.67
2023-04-20T04:41:07.498Z, 58.30
2023-04-20T04:42:07.618Z, 57.98
2023-04-20T04:43:07.546Z, 57.72
2023-04-20T04:44:07.544Z, 57.38
2023-04-20T04:45:07.599Z, 56.89
2023-04-20T04:46:07.653Z, 56.41
2023-04-20T04:47:07.597Z, 56.13
2023-04-20T04:48:08.895Z, 55.80
2023-04-20T04:49:07.595Z, 55.42
2023-04-20T04:50:07.665Z, 55.12
2023-04-20T04:51:07.628Z, 54.69
2023-04-20T04:52:07.710Z, 54.25
2023-04-20T04:53:07.779Z, 53.87
2023-04-20T04:54:07.721Z, 53.51
2023-04-20T04:55:07.690Z, 53.15
2023-04-20T04:56:07.764Z, 52.74
2023-04-20T04:57:07.724Z, 52.33
2023-04-20T04:58:07.806Z, 51.97
2023-04-20T04:59:07.759Z, 51.63
2023-04-20T05:00:07.795Z, 51.24
2023-04-20T05:01:07.770Z, 50.91
2023-04-20T05:02:07.888Z, 50.55
2023-04-20T05:03:07.989Z, 50.24
2023-04-20T05:04:08.015Z, 49.99
2023-04-20T05:05:09.531Z, 49.71
2023-04-20T05:06:07.813Z, 49.41
2023-04-20T05:07:07.810Z, 49.06
2023-04-20T05:08:07.813Z, 48.77
2023-04-20T05:09:07.829Z, 48.50
2023-04-20T05:10:07.842Z, 48.24
2023-04-20T05:11:07.852Z, 47.97
2023-04-20T05:12:07.852Z, 47.76
2023-04-20T05:13:07.932Z, 47.53
2023-04-20T05:14:07.902Z, 47.31
2023-04-20T05:15:07.960Z, 47.06
2023-04-20T05:16:07.972Z, 46.87
2023-04-20T05:17:07.960Z, 46.67
2023-04-20T05:18:07.996Z, 46.56
2023-04-20T05:19:07.975Z, 46.35
2023-04-20T05:20:07.972Z, 46.10
2023-04-20T05:21:07.997Z, 45.83
2023-04-20T05:22:07.991Z, 45.56
2023-04-20T05:23:08.015Z, 45.34
2023-04-20T05:24:07.997Z, 45.17
2023-04-20T05:25:08.025Z, 45.03
2023-04-20T05:26:08.098Z, 44.89
2023-04-20T05:27:08.080Z, 44.77
2023-04-20T05:28:08.112Z, 44.65
2023-04-20T05:29:08.081Z, 44.56
2023-04-20T05:30:19.606Z, 44.43
2023-04-20T05:31:08.103Z, 44.32
2023-04-20T05:32:08.310Z, 44.26
2023-04-20T05:33:08.125Z, 44.19
2023-04-20T05:34:08.136Z, 44.13
2023-04-20T05:35:08.162Z, 44.03
2023-04-20T05:36:08.150Z, 43.97
2023-04-20T05:37:08.170Z, 43.90
2023-04-20T05:38:08.198Z, 43.81
2023-04-20T05:39:08.223Z, 43.73
2023-04-20T05:40:08.260Z, 43.63
2023-04-20T05:41:08.247Z, 43.59
2023-04-20T05:42:08.277Z, 43.53
2023-04-20T05:43:08.287Z, 43.42
2023-04-20T05:44:08.290Z, 43.34
2023-04-20T05:45:08.388Z, 43.30
2023-04-20T05:46:08.405Z, 43.28
2023-04-20T05:47:08.370Z, 43.25
2023-04-20T05:48:08.362Z, 43.16
2023-04-20T05:49:08.380Z, 43.01
2023-04-20T05:50:08.379Z, 42.98
2023-04-20T05:51:08.409Z, 42.96
2023-04-20T05:52:08.396Z, 42.90
2023-04-20T05:53:08.402Z, 42.82
2023-04-20T05:54:08.461Z, 42.76
2023-04-20T05:55:08.443Z, 42.75
2023-04-20T05:56:08.480Z, 42.65
2023-04-20T05:57:08.456Z, 42.62
2023-04-20T05:58:08.476Z, 42.55
2023-04-20T05:59:08.470Z, 42.55
2023-04-20T06:00:08.478Z, 42.53
2023-04-20T06:01:08.568Z, 42.44
2023-04-20T06:02:08.657Z, 42.38
2023-04-20T06:03:08.709Z, 42.33
2023-04-20T06:04:08.864Z, 42.35
2023-04-20T06:05:08.755Z, 42.31
2023-04-20T06:06:08.628Z, 42.27
2023-04-20T06:07:08.576Z, 42.26
2023-04-20T06:08:08.661Z, 42.29
2023-04-20T06:09:08.626Z, 42.21
2023-04-20T06:10:08.675Z, 42.21
2023-04-20T06:11:08.623Z, 42.15
2023-04-20T06:12:08.693Z, 42.13
2023-04-20T06:13:08.675Z, 42.07
2023-04-20T06:14:08.684Z, 42.00
2023-04-20T06:15:08.663Z, 41.93
2023-04-20T06:16:08.765Z, 41.96
2023-04-20T06:17:08.734Z, 41.99
2023-04-20T06:18:08.732Z, 41.95
2023-04-20T06:19:08.796Z, 41.92
2023-04-20T06:20:08.762Z, 41.85
2023-04-20T06:21:08.778Z, 41.83
2023-04-20T06:22:08.757Z, 41.78
2023-04-20T06:23:08.803Z, 41.84
2023-04-20T06:24:08.767Z, 41.85
2023-04-20T06:25:08.783Z, 41.88
2023-04-20T06:26:08.909Z, 41.79
2023-04-20T06:27:08.812Z, 41.72
2023-04-20T06:28:08.794Z, 41.71
2023-04-20T06:29:08.797Z, 41.70
2023-04-20T06:30:08.842Z, 41.70
2023-04-20T06:31:08.850Z, 41.63
2023-04-20T06:32:08.843Z, 41.54
2023-04-20T06:33:11.803Z, 41.48
2023-04-20T06:34:08.935Z, 41.42
2023-04-20T06:35:09.087Z, 41.43
2023-04-20T06:36:08.953Z, 41.47
2023-04-20T06:37:08.928Z, 41.43
2023-04-20T06:38:08.923Z, 41.42
2023-04-20T06:39:08.989Z, 41.35
2023-04-20T06:40:09.068Z, 41.38
2023-04-20T06:41:09.017Z, 41.33
2023-04-20T06:42:08.988Z, 41.29
2023-04-20T06:43:08.985Z, 41.27
2023-04-20T06:44:09.044Z, 41.19
2023-04-20T06:45:09.055Z, 41.20
2023-04-20T06:46:09.123Z, 41.25
2023-04-20T06:47:09.105Z, 41.19
2023-04-20T06:48:20.226Z, 41.13
2023-04-20T06:49:09.065Z, 41.14
2023-04-20T06:50:09.076Z, 41.12
2023-04-20T06:51:09.062Z, 41.19
2023-04-20T06:52:09.072Z, 41.17
2023-04-20T06:53:09.101Z, 41.14
2023-04-20T06:54:09.118Z, 41.11
2023-04-20T06:55:09.142Z, 41.17
2023-04-20T06:56:09.167Z, 41.15
2023-04-20T06:57:09.211Z, 41.18
2023-04-20T06:58:09.193Z, 41.05
2023-04-20T06:59:09.266Z, 41.01
2023-04-20T07:00:09.247Z, 40.94
2023-04-20T07:01:09.351Z, 40.93
2023-04-20T07:02:09.475Z, 40.90
2023-04-20T07:03:09.531Z, 40.91
2023-04-20T07:04:09.388Z, 40.90
2023-04-20T07:05:09.326Z, 40.88
2023-04-20T07:06:09.293Z, 40.87
2023-04-20T07:07:09.301Z, 40.83
2023-04-20T07:08:09.368Z, 40.79
2023-04-20T07:09:09.318Z, 40.77
2023-04-20T07:10:09.401Z, 40.75
2023-04-20T07:11:09.356Z, 40.72
2023-04-20T07:12:09.388Z, 40.66
2023-04-20T07:13:09.373Z, 40.68
2023-04-20T07:14:09.378Z, 40.65
2023-04-20T07:15:09.384Z, 40.64
2023-04-20T07:16:09.498Z, 40.62
2023-04-20T07:17:09.439Z, 40.64
2023-04-20T07:18:09.515Z, 40.52
2023-04-20T07:19:09.442Z, 40.50
2023-04-20T07:20:09.484Z, 40.48
2023-04-20T07:21:09.520Z, 40.46
2023-04-20T07:22:09.520Z, 40.43
2023-04-20T07:23:09.509Z, 40.43
2023-04-20T07:24:09.549Z, 40.43
2023-04-20T07:25:09.549Z, 40.40
2023-04-20T07:26:09.574Z, 40.34
2023-04-20T07:27:09.563Z, 40.26
2023-04-20T07:28:09.604Z, 40.25
2023-04-20T07:29:09.592Z, 40.30
2023-04-20T07:30:09.605Z, 40.26
2023-04-20T07:31:09.601Z, 40.27
2023-04-20T07:32:09.654Z, 40.23
2023-04-20T07:33:09.663Z, 40.20
2023-04-20T07:34:09.601Z, 40.15
2023-04-20T07:35:09.693Z, 40.15
2023-04-20T07:36:09.657Z, 40.11
2023-04-20T07:37:09.691Z, 40.13
2023-04-20T07:38:09.687Z, 40.12
2023-04-20T07:39:09.704Z, 40.13
2023-04-20T07:40:09.719Z, 40.08
2023-04-20T07:41:09.683Z, 40.08
2023-04-20T07:42:09.722Z, 40.04
2023-04-20T07:44:40.063Z, 39.95
2023-04-20T07:45:09.759Z, 39.99
2023-04-20T07:46:09.766Z, 39.98
2023-04-20T07:47:09.752Z, 39.95
2023-04-20T07:48:09.872Z, 39.93
2023-04-20T07:49:09.780Z, 39.94
2023-04-20T07:50:09.853Z, 40.01
2023-04-20T07:51:09.813Z, 39.98
2023-04-20T07:52:17.079Z, 39.88
2023-04-20T07:53:09.829Z, 39.90
2023-04-20T07:54:09.844Z, 39.93
2023-04-20T07:55:09.940Z, 39.87
2023-04-20T07:56:09.908Z, 39.79
2023-04-20T07:57:09.953Z, 39.82
2023-04-20T07:58:09.934Z, 39.85
2023-04-20T07:59:09.927Z, 39.83
2023-04-20T08:00:09.960Z, 39.75
2023-04-20T08:01:09.933Z, 39.75
2023-04-20T08:02:10.052Z, 39.77
2023-04-20T08:03:10.284Z, 39.72
2023-04-20T08:04:10.246Z, 39.66
2023-04-20T08:05:10.323Z, 39.58
2023-04-20T08:06:10.060Z, 39.59
2023-04-20T08:07:10.057Z, 39.62
2023-04-20T08:08:10.042Z, 39.59
2023-04-20T08:09:11.961Z, 39.59
2023-04-20T08:10:10.608Z, 39.57
2023-04-20T08:11:10.058Z, 39.54
2023-04-20T08:12:10.074Z, 39.53
2023-04-20T08:13:10.087Z, 39.48
2023-04-20T08:14:10.076Z, 39.50
2023-04-20T08:15:10.180Z, 39.44
2023-04-20T08:16:10.166Z, 39.46
2023-04-20T08:17:10.205Z, 39.45
2023-04-20T08:18:10.252Z, 39.42
2023-04-20T08:19:10.249Z, 39.41
2023-04-20T08:20:10.214Z, 39.41
2023-04-20T08:21:10.203Z, 39.40
2023-04-20T08:22:10.201Z, 39.37
2023-04-20T08:23:10.213Z, 39.33
2023-04-20T08:24:10.213Z, 39.30
2023-04-20T08:25:10.251Z, 39.34
2023-04-20T08:26:10.314Z, 39.31
2023-04-20T08:27:10.312Z, 39.25
2023-04-20T08:28:15.426Z, 39.21
2023-04-20T08:29:10.516Z, 39.27
2023-04-20T08:30:10.392Z, 39.24
2023-04-20T08:31:10.450Z, 39.25
2023-04-20T08:32:10.344Z, 39.19
2023-04-20T08:33:10.467Z, 39.20
2023-04-20T08:34:10.354Z, 39.14
2023-04-20T08:35:10.455Z, 39.17
2023-04-20T08:36:10.392Z, 39.10
2023-04-20T08:37:10.377Z, 39.06
2023-04-20T08:38:11.410Z, 39.08
2023-04-20T08:39:10.445Z, 39.12
2023-04-20T08:40:10.453Z, 39.00
2023-04-20T08:41:10.433Z, 38.98
2023-04-20T08:42:10.510Z, 38.97
2023-04-20T08:43:10.492Z, 38.95
2023-04-20T08:44:10.515Z, 38.98
2023-04-20T08:45:10.517Z, 38.93
2023-04-20T08:46:10.551Z, 38.94
2023-04-20T08:47:10.519Z, 38.97
2023-04-20T08:48:10.530Z, 38.95
2023-04-20T08:49:10.550Z, 38.93
2023-04-20T08:50:10.542Z, 38.90
2023-04-20T08:51:10.616Z, 38.88
2023-04-20T08:52:10.604Z, 38.82
2023-04-20T08:53:10.662Z, 38.80
2023-04-20T08:54:10.631Z, 38.78
2023-04-20T08:55:10.640Z, 38.79
2023-04-20T08:56:10.642Z, 38.78
2023-04-20T08:57:10.625Z, 38.73
2023-04-20T08:58:10.696Z, 38.72
2023-04-20T08:59:10.670Z, 38.74
2023-04-20T09:00:13.028Z, 38.75
2023-04-20T09:01:10.723Z, 38.66
2023-04-20T09:02:10.857Z, 38.65
2023-04-20T09:03:11.016Z, 38.67
2023-04-20T09:04:10.834Z, 38.63
2023-04-20T09:05:10.735Z, 38.63
2023-04-20T09:06:10.720Z, 38.57
2023-04-20T09:07:10.719Z, 38.59
2023-04-20T09:08:10.802Z, 38.60
2023-04-20T09:09:10.784Z, 38.60
2023-04-20T09:10:10.845Z, 38.61
2023-04-20T09:11:10.816Z, 38.55
2023-04-20T09:12:10.841Z, 38.55
2023-04-20T09:13:10.830Z, 38.52
2023-04-20T09:14:10.863Z, 38.50
2023-04-20T09:15:10.858Z, 38.48
2023-04-20T09:16:10.875Z, 38.46
2023-04-20T09:17:10.874Z, 38.42
2023-04-20T09:18:10.860Z, 38.45
2023-04-20T09:19:12.302Z, 38.44
2023-04-20T09:20:10.954Z, 38.45
2023-04-20T09:21:10.972Z, 38.39
2023-04-20T09:22:10.961Z, 38.42
2023-04-20T09:23:10.949Z, 38.37
2023-04-20T09:24:10.960Z, 38.37
2023-04-20T09:25:10.964Z, 38.35
2023-04-20T09:26:10.961Z, 38.37
2023-04-20T09:27:10.983Z, 38.32
2023-04-20T09:28:11.064Z, 38.29
2023-04-20T09:29:11.022Z, 38.27
2023-04-20T09:30:11.040Z, 38.24
2023-04-20T09:31:11.028Z, 38.23
2023-04-20T09:32:11.160Z, 38.22
2023-04-20T09:33:11.190Z, 38.19
2023-04-20T09:34:11.069Z, 38.19
2023-04-20T09:35:11.149Z, 38.18
2023-04-20T09:36:11.118Z, 38.14
2023-04-20T09:37:11.166Z, 38.15
2023-04-20T09:38:11.142Z, 38.11
2023-04-20T09:39:11.201Z, 38.17
2023-04-20T09:40:11.197Z, 38.13
2023-04-20T09:41:11.174Z, 38.14
2023-04-20T09:42:11.172Z, 38.13
2023-04-20T09:43:11.710Z, 38.07
2023-04-20T09:44:11.249Z, 38.08
2023-04-20T09:45:11.240Z, 38.07
2023-04-20T09:46:11.285Z, 38.00
2023-04-20T09:47:11.224Z, 37.99
2023-04-20T09:48:11.228Z, 37.99
2023-04-20T09:49:11.249Z, 38.00
2023-04-20T09:50:24.848Z, 37.99
2023-04-20T09:51:11.324Z, 37.99
2023-04-20T09:52:11.305Z, 38.01
2023-04-20T09:53:11.300Z, 38.05
2023-04-20T09:54:11.365Z, 37.96
2023-04-20T09:55:11.367Z, 37.88
2023-04-20T09:56:11.403Z, 37.89
2023-04-20T09:57:11.367Z, 37.87
2023-04-20T09:58:11.404Z, 37.88
2023-04-20T09:59:11.421Z, 37.85
2023-04-20T10:00:11.670Z, 37.84
2023-04-20T10:01:11.536Z, 38.00
2023-04-20T10:02:11.610Z, 39.25
2023-04-20T10:03:11.668Z, 39.86
2023-04-20T10:04:11.776Z, 40.22
2023-04-20T10:05:11.486Z, 40.36
2023-04-20T10:06:11.464Z, 40.55
2023-04-20T10:07:11.499Z, 40.67
2023-04-20T10:08:11.524Z, 40.71
2023-04-20T10:09:11.494Z, 40.79
2023-04-20T10:10:11.525Z, 40.83
2023-04-20T10:11:11.518Z, 40.91
2023-04-20T10:12:11.601Z, 40.91
2023-04-20T10:13:11.575Z, 40.97
2023-04-20T10:14:11.583Z, 40.98
2023-04-20T10:15:11.571Z, 40.95
2023-04-20T10:16:11.596Z, 40.93
2023-04-20T10:17:11.834Z, 40.92
2023-04-20T10:18:11.699Z, 40.90
2023-04-20T10:19:11.675Z, 40.88
2023-04-20T10:20:11.655Z, 40.86
2023-04-20T10:21:11.677Z, 40.80
2023-04-20T10:22:11.672Z, 40.79
2023-04-20T10:23:11.680Z, 40.74
2023-04-20T10:24:11.738Z, 40.68
2023-04-20T10:25:11.714Z, 40.66
2023-04-20T10:26:11.781Z, 40.62
2023-04-20T10:27:11.752Z, 40.59
2023-04-20T10:28:11.815Z, 40.54
2023-04-20T10:29:11.786Z, 40.50
2023-04-20T10:30:11.802Z, 40.48
2023-04-20T10:31:11.863Z, 40.32
2023-04-20T10:32:11.780Z, 40.13
2023-04-20T10:33:11.991Z, 40.05
2023-04-20T10:34:11.849Z, 39.98
2023-04-20T10:35:11.867Z, 39.80
2023-04-20T10:36:11.856Z, 39.55
2023-04-20T10:37:11.867Z, 39.37
2023-04-20T10:38:11.918Z, 39.18
2023-04-20T10:39:11.874Z, 39.06
2023-04-20T10:40:11.993Z, 38.95
2023-04-20T10:41:11.911Z, 38.87
2023-04-20T10:42:11.972Z, 38.80
2023-04-20T10:43:11.928Z, 38.72
2023-04-20T10:44:12.008Z, 38.68
2023-04-20T10:45:11.997Z, 38.65
2023-04-20T10:46:12.024Z, 38.56
2023-04-20T10:47:11.990Z, 38.49
2023-04-20T10:48:12.079Z, 38.48
2023-04-20T10:49:12.002Z, 38.44
2023-04-20T10:50:12.037Z, 38.36
2023-04-20T10:51:12.094Z, 38.34
2023-04-20T10:52:12.080Z, 38.29
2023-04-20T10:53:12.117Z, 38.22
2023-04-20T10:54:12.092Z, 38.29
2023-04-20T10:55:12.143Z, 39.90
2023-04-20T10:56:12.121Z, 44.28
2023-04-20T10:57:12.124Z, 48.86
2023-04-20T10:58:12.117Z, 53.40
2023-04-20T10:59:12.134Z, 57.77
2023-04-20T11:00:12.137Z, 66.99
2023-04-20T11:01:12.134Z, 61.84
2023-04-20T11:02:12.299Z, 53.41
2023-04-20T11:03:12.250Z, 53.99
2023-04-20T11:04:12.184Z, 55.14
2023-04-20T11:05:12.247Z, 57.53
2023-04-20T11:06:12.217Z, 60.96
2023-04-20T11:07:12.247Z, 67.54
2023-04-20T11:08:12.248Z, 56.30
2023-04-20T11:09:12.242Z, 54.09
2023-04-20T11:10:12.272Z, 55.18
2023-04-20T11:11:12.280Z, 56.46
2023-04-20T11:12:12.302Z, 57.74
2023-04-20T11:13:12.314Z, 58.49
2023-04-20T11:14:12.316Z, 59.26
2023-04-20T11:15:12.378Z, 59.60
2023-04-20T11:16:12.399Z, 59.86
2023-04-20T11:17:12.420Z, 59.99
2023-04-20T11:18:12.480Z, 60.08
2023-04-20T11:19:12.428Z, 60.16
2023-04-20T11:20:12.419Z, 60.09
2023-04-20T11:21:12.420Z, 59.99
2023-04-20T11:22:12.419Z, 59.94
2023-04-20T11:23:12.498Z, 59.87
2023-04-20T11:24:12.481Z, 59.88
2023-04-20T11:25:12.549Z, 59.68
2023-04-20T11:26:12.484Z, 59.62
2023-04-20T11:27:12.488Z, 59.44
2023-04-20T11:28:12.568Z, 59.33
2023-04-20T11:29:12.557Z, 59.22
2023-04-20T11:30:12.535Z, 59.06
2023-04-20T11:31:12.601Z, 58.92
2023-04-20T11:32:12.681Z, 58.78
2023-04-20T11:33:12.803Z, 58.55
2023-04-20T11:34:12.568Z, 58.47
2023-04-20T11:35:12.586Z, 58.38
2023-04-20T11:36:12.582Z, 58.23
2023-04-20T11:37:12.663Z, 58.06
2023-04-20T11:38:12.644Z, 57.99
2023-04-20T11:39:12.698Z, 57.84
2023-04-20T11:40:12.699Z, 57.69
2023-04-20T11:41:12.681Z, 57.62
2023-04-20T11:42:12.677Z, 57.47
2023-04-20T11:43:12.683Z, 57.32
2023-04-20T11:44:12.769Z, 57.16
2023-04-20T11:45:12.737Z, 57.08
2023-04-20T11:46:12.843Z, 56.97
2023-04-20T11:47:12.754Z, 56.84
2023-04-20T11:48:12.764Z, 56.70
2023-04-20T11:49:12.770Z, 56.57
2023-04-20T11:50:12.793Z, 56.49
2023-04-20T11:51:12.778Z, 56.46
2023-04-20T11:52:12.781Z, 56.34
2023-04-20T11:53:12.843Z, 56.22
2023-04-20T11:54:12.832Z, 56.11
2023-04-20T11:55:12.905Z, 55.93
2023-04-20T11:56:12.867Z, 55.84
2023-04-20T11:57:12.928Z, 55.82
2023-04-20T11:58:12.895Z, 55.66
2023-04-20T11:59:12.901Z, 55.58
2023-04-20T12:00:12.909Z, 55.56
2023-04-20T12:01:12.899Z, 55.50
2023-04-20T12:02:12.995Z, 55.30
2023-04-20T12:03:13.203Z, 55.26
2023-04-20T12:04:13.150Z, 55.16
2023-04-20T12:05:13.025Z, 55.01
2023-04-20T12:06:12.952Z, 54.97
2023-04-20T12:07:12.986Z, 54.89
2023-04-20T12:08:13.001Z, 54.77
2023-04-20T12:09:13.012Z, 54.65
2023-04-20T12:10:13.116Z, 54.56
2023-04-20T12:11:13.050Z, 54.49
2023-04-20T12:12:13.114Z, 54.44
2023-04-20T12:13:13.076Z, 54.37
2023-04-20T12:14:13.151Z, 54.26
2023-04-20T12:15:13.094Z, 54.16
2023-04-20T12:16:13.171Z, 54.11
2023-04-20T12:17:13.167Z, 54.09
2023-04-20T12:18:13.141Z, 54.01
2023-04-20T12:19:13.130Z, 53.87
2023-04-20T12:20:13.203Z, 53.82
2023-04-20T12:21:13.153Z, 53.64
2023-04-20T12:22:13.140Z, 53.62
2023-04-20T12:23:13.247Z, 53.71
2023-04-20T12:24:13.206Z, 53.62
2023-04-20T12:25:13.255Z, 53.58
2023-04-20T12:26:13.233Z, 53.46
2023-04-20T12:27:13.231Z, 53.35
2023-04-20T12:28:13.241Z, 53.35
2023-04-20T12:29:13.237Z, 53.22